Time;durP1;ratioP1;P1;durP2;ratioP2;P2;SDS_P1;SDS_P2;PMS_P1;PMS_P2;Temp;Humidity;BMP_temperature;BMP_pressure;BME280_temperature;BME280_humidity;BME280_pressure;Samples;Min_cycle;Max_cycle;Signal;HPM_P1;HPM_P2
2024/01/07 00:01:48;;;;;;;10.50;5.20;;;;;;;6.76;100.00;100377.02;109760;1251;63005;-75
2024/01/07 00:06:17;;;;;;;8.40;4.80;;;;;;;6.83;100.00;100385.20;104661;1288;600622;-74
2024/01/07 00:08:45;;;;;;;11.50;5.80;;;;;;;6.76;100.00;100386.73;105287;1265;60960;-76
2024/01/07 00:11:12;;;;;;;10.70;5.60;;;;;;;6.71;100.00;100386.96;105188;1265;59567;-74
2024/01/07 00:13:39;;;;;;;11.70;5.70;;;;;;;6.69;100.00;100389.53;105146;1265;72247;-75
2024/01/07 00:16:07;;;;;;;6.10;4.70;;;;;;;6.69;100.00;100387.98;105048;1263;62532;-76
2024/01/07 00:18:34;;;;;;;9.80;5.50;;;;;;;6.70;100.00;100393.83;105359;1263;72575;-75
2024/01/07 00:21:02;;;;;;;10.90;5.00;;;;;;;6.70;100.00;100401.12;105542;1260;172893;-75
2024/01/07 00:23:30;;;;;;;10.60;5.40;;;;;;;6.70;100.00;100405.80;106010;1264;59508;-74
2024/01/07 00:25:57;;;;;;;10.60;5.50;;;;;;;6.69;100.00;100404.59;106551;1253;70991;-75
2024/01/07 00:28:25;;;;;;;7.10;4.90;;;;;;;6.69;100.00;100400.95;105963;1256;62983;-75
2024/01/07 00:30:52;;;;;;;7.50;5.20;;;;;;;6.69;100.00;100404.41;106178;1251;72663;-76
2024/01/07 00:33:20;;;;;;;9.90;5.10;;;;;;;6.69;100.00;100401.64;108312;1253;59816;-74
2024/01/07 00:35:48;;;;;;;10.30;5.30;;;;;;;6.70;100.00;100401.27;107441;1253;59643;-77
2024/01/07 00:38:15;;;;;;;9.60;5.10;;;;;;;6.70;100.00;100407.52;105936;1256;72330;-78
2024/01/07 00:40:43;;;;;;;9.80;6.30;;;;;;;6.69;100.00;100412.26;106020;1253;62466;-77
2024/01/07 00:43:10;;;;;;;9.60;5.30;;;;;;;6.69;100.00;100413.63;105941;1254;72679;-77
2024/01/07 00:45:38;;;;;;;10.10;6.70;;;;;;;6.70;100.00;100422.29;105840;1256;59814;-77
2024/01/07 00:48:06;;;;;;;9.30;6.00;;;;;;;6.70;100.00;100418.10;105773;1257;59999;-76
2024/01/07 00:50:34;;;;;;;11.50;7.00;;;;;;;6.70;100.00;100416.07;105866;1251;71892;-74
2024/01/07 00:53:02;;;;;;;10.40;6.10;;;;;;;6.68;100.00;100413.02;105907;1254;62233;-76
2024/01/07 00:55:30;;;;;;;6.90;4.30;;;;;;;6.65;100.00;100407.06;106004;1253;73170;-75
2024/01/07 00:57:58;;;;;;;8.60;4.90;;;;;;;6.62;100.00;100405.44;106198;1256;59740;-75
2024/01/07 01:00:26;;;;;;;9.20;5.00;;;;;;;6.61;100.00;100407.20;105862;1253;59964;-75
2024/01/07 01:02:53;;;;;;;8.90;4.90;;;;;;;6.60;100.00;100407.45;105910;1256;73553;-76
2024/01/07 01:05:20;;;;;;;10.20;5.20;;;;;;;6.60;100.00;100405.20;105983;1251;63655;-77
2024/01/07 01:07:48;;;;;;;11.00;5.70;;;;;;;6.60;100.00;100408.52;105964;1256;72667;-76
2024/01/07 01:10:17;;;;;;;12.80;6.40;;;;;;;6.61;100.00;100407.60;105825;1253;60211;-76
2024/01/07 01:12:45;;;;;;;9.90;6.20;;;;;;;6.62;100.00;100408.95;105771;1255;59602;-76
2024/01/07 01:15:12;;;;;;;14.20;8.10;;;;;;;6.64;100.00;100414.22;105806;1253;72477;-76
2024/01/07 01:17:40;;;;;;;16.10;9.70;;;;;;;6.64;100.00;100418.05;105765;1256;63556;-74
2024/01/07 01:20:09;;;;;;;15.30;11.40;;;;;;;6.63;100.00;100415.33;105753;1255;71398;-78
2024/01/07 01:22:36;;;;;;;15.20;10.40;;;;;;;6.62;100.00;100413.63;105771;1253;59670;-76
2024/01/07 01:25:05;;;;;;;16.40;9.80;;;;;;;6.62;100.00;100416.95;105692;1255;59853;-75
2024/01/07 01:27:32;;;;;;;18.40;9.40;;;;;;;6.60;100.00;100419.09;105688;1253;72088;-75
2024/01/07 01:30:01;;;;;;;18.90;9.10;;;;;;;6.56;100.00;100422.57;105784;1256;64015;-74
2024/01/07 01:32:29;;;;;;;16.40;9.00;;;;;;;6.54;100.00;100422.20;105731;1255;72766;-74
2024/01/07 01:34:56;;;;;;;14.10;7.20;;;;;;;6.50;100.00;100426.01;105719;1251;60114;-75
2024/01/07 01:37:24;;;;;;;11.80;6.20;;;;;;;6.44;100.00;100419.30;105720;1255;59993;-74
2024/01/07 01:39:51;;;;;;;13.80;9.20;;;;;;;6.38;100.00;100415.45;105774;1256;73426;-77
2024/01/07 01:42:18;;;;;;;11.80;9.10;;;;;;;6.29;100.00;100417.59;105843;1252;61393;-75
2024/01/07 01:44:46;;;;;;;14.20;8.80;;;;;;;6.19;100.00;100426.53;105792;1254;72017;-75
2024/01/07 01:47:14;;;;;;;15.40;8.90;;;;;;;6.09;100.00;100429.07;105771;1257;59740;-75
2024/01/07 01:49:43;;;;;;;24.70;13.50;;;;;;;5.96;100.00;100425.09;105940;1255;59711;-74
2024/01/07 01:52:11;;;;;;;20.20;12.50;;;;;;;5.85;100.00;100424.37;105858;1257;72157;-75
2024/01/07 01:54:38;;;;;;;21.50;14.20;;;;;;;5.72;100.00;100424.06;106036;1253;62706;-77
2024/01/07 01:57:06;;;;;;;23.00;15.00;;;;;;;5.55;100.00;100419.23;105833;1253;72680;-76
2024/01/07 01:59:33;;;;;;;24.20;15.90;;;;;;;5.41;100.00;100421.36;105668;1257;59656;-77
2024/01/07 02:02:01;;;;;;;22.00;15.40;;;;;;;5.34;100.00;100419.23;105769;1255;59734;-76
2024/01/07 02:04:29;;;;;;;22.30;15.70;;;;;;;5.29;100.00;100419.60;105830;1259;71012;-76
2024/01/07 02:06:57;;;;;;;30.90;18.30;;;;;;;5.26;100.00;100419.06;105817;1251;61859;-76
2024/01/07 02:09:25;;;;;;;27.50;19.20;;;;;;;5.23;100.00;100421.09;105722;1258;72483;-75
2024/01/07 02:12:05;;;;;;;26.40;18.10;;;;;;;5.21;100.00;100415.29;105785;1258;60914;-76
2024/01/07 02:14:32;;;;;;;26.70;19.10;;;;;;;5.20;100.00;100406.48;105782;1253;59940;-75
2024/01/07 02:17:00;;;;;;;33.50;19.90;;;;;;;5.19;100.00;100407.91;105701;1251;72893;-75
2024/01/07 02:19:27;;;;;;;34.30;22.00;;;;;;;5.15;100.00;100410.00;105955;1258;65266;-77
2024/01/07 02:21:55;;;;;;;33.00;21.30;;;;;;;5.09;100.00;100406.59;105966;1253;71074;-76
2024/01/07 02:24:22;;;;;;;32.60;20.30;;;;;;;5.06;100.00;100408.61;105818;1253;60877;-76
2024/01/07 02:26:50;;;;;;;30.40;20.60;;;;;;;5.04;100.00;100411.47;105961;1256;60240;-78
2024/01/07 02:29:18;;;;;;;31.60;20.30;;;;;;;5.03;100.00;100405.80;105737;1251;72937;-75
2024/01/07 02:31:45;;;;;;;34.20;21.90;;;;;;;5.00;100.00;100398.63;105856;1253;62263;-76
2024/01/07 02:34:13;;;;;;;30.30;21.60;;;;;;;4.96;100.00;100405.88;105879;1253;72757;-75
2024/01/07 02:36:40;;;;;;;30.20;20.50;;;;;;;4.91;100.00;100408.51;107300;1251;61051;-76
2024/01/07 02:39:08;;;;;;;35.80;21.10;;;;;;;4.87;100.00;100414.05;107735;1251;60156;-76
2024/01/07 02:41:35;;;;;;;32.90;21.10;;;;;;;4.85;100.00;100421.92;108030;1254;71843;-77
2024/01/07 02:44:03;;;;;;;33.60;21.50;;;;;;;4.82;100.00;100423.95;106249;1258;62278;-74
2024/01/07 02:46:31;;;;;;;39.50;22.90;;;;;;;4.78;100.00;100426.70;106063;1253;70446;-76
2024/01/07 02:48:58;;;;;;;34.90;21.60;;;;;;;4.72;100.00;100430.73;105873;1256;61262;-75
2024/01/07 02:51:27;;;;;;;33.80;22.10;;;;;;;4.69;100.00;100435.89;106302;1256;60317;-74
2024/01/07 02:53:55;;;;;;;44.40;25.20;;;;;;;4.67;100.00;100439.58;106038;1251;73111;-75
2024/01/07 02:56:22;;;;;;;40.40;24.10;;;;;;;4.65;100.00;100439.84;105980;1256;63526;-75
2024/01/07 02:58:49;;;;;;;40.20;22.40;;;;;;;4.63;100.00;100448.94;105870;1257;72157;-74
2024/01/07 03:01:17;;;;;;;37.00;22.60;;;;;;;4.63;100.00;100452.73;105757;1251;60773;-74
2024/01/07 03:03:44;;;;;;;37.50;22.30;;;;;;;4.63;100.00;100459.83;105961;1255;60121;-75
2024/01/07 03:06:12;;;;;;;42.50;23.80;;;;;;;4.63;100.00;100457.94;105945;1257;73803;-74
2024/01/07 03:08:39;;;;;;;37.90;21.90;;;;;;;4.58;100.00;100459.47;105707;1257;63696;-74
2024/01/07 03:11:06;;;;;;;37.90;23.10;;;;;;;4.51;100.00;100467.89;105728;1257;71177;-76
2024/01/07 03:13:34;;;;;;;41.40;23.60;;;;;;;4.45;100.00;100468.96;105787;1259;60852;-76
2024/01/07 03:16:01;;;;;;;41.70;21.50;;;;;;;4.38;100.00;100470.98;105808;1251;61224;-76
2024/01/07 03:18:30;;;;;;;36.30;20.50;;;;;;;4.33;100.00;100473.04;105836;1251;72892;-76
2024/01/07 03:20:58;;;;;;;37.20;21.50;;;;;;;4.26;100.00;100469.65;105848;1253;62009;-75
2024/01/07 03:23:25;;;;;;;37.20;20.60;;;;;;;4.20;100.00;100476.31;105811;1256;71710;-74
2024/01/07 03:25:53;;;;;;;30.70;18.60;;;;;;;4.12;100.00;100472.08;105960;1253;59664;-73
2024/01/07 03:28:20;;;;;;;31.30;18.40;;;;;;;4.06;100.00;100480.25;106063;1254;60101;-76
2024/01/07 03:30:48;;;;;;;30.70;19.10;;;;;;;3.99;100.00;100486.91;106106;1256;73038;-75
2024/01/07 03:33:15;;;;;;;33.00;19.90;;;;;;;3.93;100.00;100485.03;106086;1252;62306;-74
2024/01/07 03:35:43;;;;;;;30.10;18.40;;;;;;;3.87;100.00;100476.92;106760;1252;72585;-74
2024/01/07 03:38:10;;;;;;;34.70;18.90;;;;;;;3.82;100.00;100466.03;106539;1253;60890;-73
2024/01/07 03:40:38;;;;;;;30.00;16.40;;;;;;;3.78;100.00;100467.41;107149;1256;59630;-75
2024/01/07 03:43:05;;;;;;;27.40;16.00;;;;;;;3.73;100.00;100477.39;108080;1251;71870;-74
2024/01/07 03:45:34;;;;;;;23.70;15.90;;;;;;;3.70;100.00;100483.58;107011;1257;62155;-75
2024/01/07 03:48:01;;;;;;;25.30;14.50;;;;;;;3.66;100.00;100486.63;105755;1256;72639;-76
2024/01/07 03:50:29;;;;;;;21.90;14.30;;;;;;;3.63;100.00;100490.38;105802;1257;59736;-76
2024/01/07 03:52:57;;;;;;;18.20;12.60;;;;;;;3.61;100.00;100497.52;105904;1252;59816;-73
2024/01/07 03:55:25;;;;;;;18.40;11.80;;;;;;;3.53;100.00;100499.86;107682;1256;71940;-72
2024/01/07 03:57:53;;;;;;;17.30;11.10;;;;;;;3.47;100.00;100499.35;107278;1251;62341;-74
2024/01/07 04:00:20;;;;;;;16.50;9.80;;;;;;;3.47;100.00;100499.72;106868;1256;71504;-76
2024/01/07 04:02:48;;;;;;;13.80;9.70;;;;;;;3.47;100.00;100499.55;105768;1252;59819;-75
2024/01/07 04:05:16;;;;;;;14.40;9.60;;;;;;;3.45;100.00;100500.48;105870;1256;59999;-75
2024/01/07 04:07:43;;;;;;;15.60;10.10;;;;;;;3.40;100.00;100502.89;105822;1252;72261;-78
2024/01/07 04:10:11;;;;;;;15.50;9.70;;;;;;;3.38;100.00;100503.65;105913;1256;63959;-76
2024/01/07 04:12:39;;;;;;;13.80;10.20;;;;;;;3.36;100.00;100513.73;105702;1253;71443;-76
2024/01/07 04:15:06;;;;;;;12.40;8.90;;;;;;;3.28;100.00;100514.47;105746;1251;61301;-76
2024/01/07 04:17:34;;;;;;;11.50;8.60;;;;;;;3.23;100.00;100525.88;105801;1259;60483;-77
2024/01/07 04:20:01;;;;;;;13.50;9.40;;;;;;;3.19;100.00;100540.17;105759;1252;72552;-74
2024/01/07 04:22:29;;;;;;;16.30;9.90;;;;;;;3.13;100.00;100549.34;105786;1257;63554;-75
2024/01/07 04:24:57;;;;;;;15.10;11.00;;;;;;;3.09;100.00;100555.30;105906;1256;72680;-74
2024/01/07 04:27:27;;;;;;;13.20;9.30;;;;;;;3.08;100.00;100561.92;105826;1254;60923;-75
2024/01/07 04:29:54;;;;;;;14.00;9.50;;;;;;;3.02;100.00;100557.08;105668;1256;60438;-74
2024/01/07 04:32:22;;;;;;;13.50;9.30;;;;;;;2.97;100.00;100553.28;105680;1251;73857;-73
2024/01/07 04:34:50;;;;;;;18.10;10.60;;;;;;;2.95;100.00;100552.45;105780;1257;62291;-75
2024/01/07 04:37:18;;;;;;;13.30;9.90;;;;;;;2.95;100.00;100554.89;105691;1256;72479;-73
2024/01/07 04:39:45;;;;;;;20.30;12.50;;;;;;;2.95;100.00;100560.74;105712;1251;60831;-74
2024/01/07 04:42:13;;;;;;;19.40;11.80;;;;;;;2.93;100.00;100563.58;105716;1257;60528;-74
2024/01/07 04:44:41;;;;;;;19.30;12.00;;;;;;;2.86;100.00;100562.73;105677;1254;72592;-75
2024/01/07 04:47:29;;;;;;;19.60;12.50;;;;;;;2.76;100.00;100560.44;105465;1261;62720;-75
2024/01/07 04:49:57;;;;;;;20.20;12.20;;;;;;;2.67;100.00;100572.07;105730;1254;71879;-74
2024/01/07 04:52:25;;;;;;;17.80;11.80;;;;;;;2.58;100.00;100572.51;105669;1263;60531;-76
2024/01/07 04:54:53;;;;;;;17.50;11.60;;;;;;;2.45;100.00;100573.73;105614;1256;60578;-74
2024/01/07 04:57:21;;;;;;;18.60;12.90;;;;;;;2.39;100.00;100580.44;105752;1255;73873;-73
2024/01/07 04:59:49;;;;;;;19.60;12.10;;;;;;;2.34;100.00;100585.23;105610;1258;63591;-75
2024/01/07 05:02:17;;;;;;;21.10;12.60;;;;;;;2.29;100.00;100592.61;105695;1251;72499;-75
2024/01/07 05:04:45;;;;;;;19.90;13.20;;;;;;;2.22;100.00;100594.33;105643;1257;60469;-74
2024/01/07 05:07:12;;;;;;;16.00;11.20;;;;;;;2.17;100.00;100593.26;105678;1258;60480;-76
2024/01/07 05:09:40;;;;;;;18.00;12.00;;;;;;;2.12;100.00;100589.59;105935;1257;74726;-76
2024/01/07 05:12:08;;;;;;;17.20;12.50;;;;;;;2.12;100.00;100595.64;105924;1259;61985;-76
2024/01/07 05:14:36;;;;;;;19.40;13.30;;;;;;;2.17;100.00;100600.52;105917;1258;72702;-75
2024/01/07 05:17:04;;;;;;;19.00;11.60;;;;;;;2.19;100.00;100600.11;105770;1260;60557;-75
2024/01/07 05:19:31;;;;;;;18.90;12.70;;;;;;;2.16;100.00;100592.24;105783;1257;60431;-75
2024/01/07 05:21:59;;;;;;;18.70;12.40;;;;;;;2.13;100.00;100586.48;105759;1255;71971;-75
2024/01/07 05:24:27;;;;;;;20.40;13.00;;;;;;;2.09;100.00;100587.10;105735;1251;63753;-74
2024/01/07 05:26:54;;;;;;;17.60;12.00;;;;;;;2.03;100.00;100585.00;105882;1254;71927;-76
2024/01/07 05:29:22;;;;;;;20.70;13.50;;;;;;;1.98;100.00;100583.92;105756;1257;60902;-75
2024/01/07 05:31:49;;;;;;;25.50;16.80;;;;;;;1.93;100.00;100595.94;105749;1261;60418;-75
2024/01/07 05:34:17;;;;;;;25.70;17.30;;;;;;;1.91;100.00;100602.19;105799;1253;73859;-74
2024/01/07 05:36:46;;;;;;;26.90;17.70;;;;;;;1.87;100.00;100607.81;106090;1257;63116;-75
2024/01/07 05:39:13;;;;;;;27.70;18.70;;;;;;;1.86;100.00;100611.27;105802;1258;72924;-75
2024/01/07 05:41:41;;;;;;;31.70;19.60;;;;;;;1.85;100.00;100615.77;106234;1257;60442;-75
2024/01/07 05:44:09;;;;;;;30.30;19.10;;;;;;;1.84;100.00;100619.77;106356;1256;60490;-73
2024/01/07 05:46:40;;;;;;;26.00;17.70;;;;;;;1.83;100.00;100623.41;106882;1251;73847;-74
2024/01/07 05:49:08;;;;;;;29.70;19.70;;;;;;;1.82;100.00;100629.47;106944;1253;63173;-73
2024/01/07 05:51:42;;;;;;;35.10;20.50;;;;;;;1.82;100.00;100621.20;106492;1256;73607;-77
2024/01/07 05:54:09;;;;;;;30.50;19.60;;;;;;;1.81;100.00;100616.04;107047;1255;61174;-74
2024/01/07 05:56:40;;;;;;;27.00;18.20;;;;;;;1.79;100.00;100616.80;108157;1256;60368;-75
2024/01/07 05:59:08;;;;;;;30.30;19.90;;;;;;;1.74;100.00;100623.97;108495;1255;72578;-74
2024/01/07 06:01:36;;;;;;;33.20;21.20;;;;;;;1.72;100.00;100620.57;108414;1256;63513;-75
2024/01/07 06:04:03;;;;;;;33.30;20.30;;;;;;;1.68;100.00;100621.02;106039;1258;71838;-77
2024/01/07 06:06:32;;;;;;;36.20;21.80;;;;;;;1.67;100.00;100624.48;105788;1257;60797;-78
2024/01/07 06:08:59;;;;;;;31.70;20.30;;;;;;;1.64;100.00;100630.77;106048;1256;60506;-75
2024/01/07 06:11:27;;;;;;;34.40;22.00;;;;;;;1.60;100.00;100634.64;105913;1256;74016;-76
2024/01/07 06:13:55;;;;;;;32.10;19.60;;;;;;;1.57;100.00;100645.73;105771;1252;63742;-77
2024/01/07 06:16:23;;;;;;;29.90;19.50;;;;;;;1.56;100.00;100648.84;105878;1258;70589;-77
2024/01/07 06:18:50;;;;;;;29.10;19.60;;;;;;;1.54;100.00;100649.77;105881;1255;60510;-80
2024/01/07 06:21:18;;;;;;;25.60;17.60;;;;;;;1.54;100.00;100643.74;105871;1256;60400;-75
2024/01/07 06:23:46;;;;;;;31.50;19.40;;;;;;;1.52;100.00;100643.77;105959;1254;72070;-76
2024/01/07 06:26:15;;;;;;;26.90;17.50;;;;;;;1.49;100.00;100643.15;105917;1253;62783;-75
2024/01/07 06:28:42;;;;;;;23.40;16.50;;;;;;;1.48;100.00;100645.77;105794;1257;72657;-75
2024/01/07 06:31:09;;;;;;;30.90;17.90;;;;;;;1.45;100.00;100640.83;105890;1260;60368;-76
2024/01/07 06:33:37;;;;;;;25.40;16.10;;;;;;;1.43;100.00;100637.25;105803;1256;60422;-77
2024/01/07 06:36:05;;;;;;;24.10;15.50;;;;;;;1.44;100.00;100632.23;105861;1257;72954;-76
2024/01/07 06:38:33;;;;;;;22.30;15.50;;;;;;;1.45;100.00;100633.95;105848;1259;62698;-76
2024/01/07 06:41:03;;;;;;;22.40;14.30;;;;;;;1.43;100.00;100639.31;105755;1251;72697;-77
2024/01/07 06:43:32;;;;;;;20.10;14.60;;;;;;;1.42;100.00;100642.10;105888;1257;60539;-73
2024/01/07 06:45:59;;;;;;;21.30;14.60;;;;;;;1.41;100.00;100644.55;105856;1251;60764;-74
2024/01/07 06:48:27;;;;;;;22.60;14.90;;;;;;;1.36;100.00;100653.41;105793;1253;72676;-74
2024/01/07 06:50:55;;;;;;;27.30;15.70;;;;;;;1.30;100.00;100649.61;105807;1251;61686;-76
2024/01/07 06:53:22;;;;;;;25.90;15.10;;;;;;;1.22;100.00;100641.83;105870;1257;72457;-74
2024/01/07 06:55:49;;;;;;;22.90;13.80;;;;;;;1.16;100.00;100637.33;105843;1254;61617;-76
2024/01/07 06:58:17;;;;;;;20.00;14.20;;;;;;;1.11;100.00;100637.93;105853;1257;61296;-75
2024/01/07 07:00:44;;;;;;;23.70;14.90;;;;;;;1.08;100.00;100639.91;105850;1251;72671;-75
2024/01/07 07:03:12;;;;;;;27.90;15.00;;;;;;;1.08;100.00;100644.20;105907;1251;62888;-76
2024/01/07 07:05:40;;;;;;;21.60;12.90;;;;;;;1.10;100.00;100639.69;109581;1251;71374;-76
2024/01/07 07:08:08;;;;;;;24.00;15.10;;;;;;;1.10;100.00;100637.64;109624;1254;58667;-74
2024/01/07 07:10:35;;;;;;;19.50;14.00;;;;;;;1.08;100.00;100638.17;109689;1251;58750;-75
2024/01/07 07:13:03;;;;;;;23.70;14.90;;;;;;;1.05;100.00;100638.23;109519;1251;73877;-75
2024/01/07 07:15:30;;;;;;;19.00;13.70;;;;;;;0.99;100.00;100644.56;109620;1251;63554;-75
2024/01/07 07:17:58;;;;;;;21.90;11.80;;;;;;;0.95;100.00;100646.86;109606;1251;70840;-78
2024/01/07 07:20:26;;;;;;;18.90;13.00;;;;;;;0.92;100.00;100652.27;109571;1251;59750;-76
2024/01/07 07:22:54;;;;;;;19.70;14.00;;;;;;;0.92;100.00;100656.39;109620;1251;58790;-76
2024/01/07 07:25:22;;;;;;;19.40;13.00;;;;;;;0.89;100.00;100659.90;109595;1251;73832;-75
2024/01/07 07:27:49;;;;;;;24.30;13.60;;;;;;;0.87;100.00;100667.00;109617;1251;63707;-77
2024/01/07 07:30:18;;;;;;;18.00;12.00;;;;;;;0.91;100.00;100662.62;109589;1251;71471;-76
2024/01/07 07:32:45;;;;;;;20.70;12.40;;;;;;;0.93;100.00;100666.34;109578;1253;59829;-77
2024/01/07 07:35:13;;;;;;;17.50;11.90;;;;;;;0.91;100.00;100674.31;109642;1251;60116;-75
2024/01/07 07:37:40;;;;;;;21.30;13.00;;;;;;;0.91;100.00;100671.05;109603;1251;73794;-75
2024/01/07 07:40:08;;;;;;;18.30;12.20;;;;;;;0.93;100.00;100673.77;109597;1251;63825;-74
2024/01/07 07:42:37;;;;;;;21.50;13.50;;;;;;;0.98;100.00;100678.66;109635;1252;71450;-74
2024/01/07 07:45:05;;;;;;;20.30;12.90;;;;;;;1.00;100.00;100680.16;109633;1251;59804;-75
2024/01/07 07:47:32;;;;;;;21.10;13.10;;;;;;;1.01;100.00;100673.26;109776;1251;58813;-75
2024/01/07 07:50:01;;;;;;;20.60;11.90;;;;;;;1.01;100.00;100675.15;109648;1254;73951;-76
2024/01/07 07:52:30;;;;;;;22.40;14.00;;;;;;;1.02;100.00;100672.20;109625;1251;62400;-74
2024/01/07 07:54:58;;;;;;;18.80;12.60;;;;;;;1.03;100.00;100681.65;109570;1251;72467;-77
2024/01/07 07:57:25;;;;;;;17.40;11.70;;;;;;;0.98;100.00;100685.02;109577;1251;59899;-76
2024/01/07 07:59:53;;;;;;;17.30;11.20;;;;;;;0.96;100.00;100685.23;109638;1251;60963;-75
2024/01/07 08:02:21;;;;;;;20.90;13.50;;;;;;;0.97;100.00;100682.13;109580;1251;72500;-74
2024/01/07 08:04:48;;;;;;;18.90;11.50;;;;;;;0.93;100.00;100678.05;109646;1251;64928;-76
2024/01/07 08:07:16;;;;;;;19.00;12.40;;;;;;;0.90;100.00;100686.90;109667;1251;72453;-75
2024/01/07 08:09:43;;;;;;;21.30;12.40;;;;;;;0.87;100.00;100697.10;109590;1254;60957;-74
2024/01/07 08:12:11;;;;;;;18.10;11.70;;;;;;;0.84;100.00;100699.23;109624;1251;60221;-75
2024/01/07 08:14:41;;;;;;;16.70;11.20;;;;;;;0.80;100.00;100690.36;109601;1251;73870;-76
2024/01/07 08:17:08;;;;;;;18.70;11.50;;;;;;;0.75;100.00;100684.77;109614;1251;63980;-76
2024/01/07 08:19:36;;;;;;;18.80;12.10;;;;;;;0.71;100.00;100691.89;109632;1251;72689;-75
2024/01/07 08:22:04;;;;;;;19.30;12.00;;;;;;;0.65;100.00;100700.95;109568;1253;59730;-74
2024/01/07 08:24:31;;;;;;;19.70;12.90;;;;;;;0.64;100.00;100695.80;109600;1251;59958;-74
2024/01/07 08:26:59;;;;;;;19.80;12.20;;;;;;;0.66;100.00;100707.66;109569;1251;71965;-76
2024/01/07 08:29:29;;;;;;;18.90;11.90;;;;;;;0.66;100.00;100716.08;109588;1251;64425;-75
2024/01/07 08:31:56;;;;;;;19.90;11.80;;;;;;;0.66;100.00;100711.27;109571;1251;71369;-76
2024/01/07 08:34:23;;;;;;;20.80;12.70;;;;;;;0.66;100.00;100711.60;109531;1256;60914;-75
2024/01/07 08:36:53;;;;;;;19.00;13.30;;;;;;;0.73;100.00;100708.38;109687;1251;60129;-76
2024/01/07 08:39:21;;;;;;;19.10;12.50;;;;;;;0.75;100.00;100706.27;109588;1251;73947;-77
2024/01/07 08:41:49;;;;;;;17.50;11.00;;;;;;;0.75;100.00;100712.14;109594;1251;62452;-77
2024/01/07 08:44:16;;;;;;;16.50;11.20;;;;;;;0.77;100.00;100723.11;109585;1251;71243;-76
2024/01/07 08:46:45;;;;;;;17.60;11.70;;;;;;;0.77;100.00;100715.36;109601;1251;61356;-74
2024/01/07 08:49:13;;;;;;;20.80;13.00;;;;;;;0.76;100.00;100717.80;109680;1251;59670;-75
2024/01/07 08:51:41;;;;;;;18.40;12.50;;;;;;;0.74;100.00;100723.34;109570;1251;72841;-76
2024/01/07 08:54:09;;;;;;;19.40;12.20;;;;;;;0.71;100.00;100715.14;109581;1251;64269;-76
2024/01/07 08:56:36;;;;;;;19.50;11.90;;;;;;;0.72;100.00;100713.73;109522;1251;72433;-76
2024/01/07 08:59:04;;;;;;;19.30;12.10;;;;;;;0.71;100.00;100712.89;109576;1251;61365;-75
2024/01/07 09:01:31;;;;;;;17.60;11.30;;;;;;;0.73;100.00;100718.36;109607;1251;60231;-77
2024/01/07 09:03:59;;;;;;;16.50;11.40;;;;;;;0.72;100.00;100715.13;109630;1251;72737;-75
2024/01/07 09:06:27;;;;;;;16.90;11.80;;;;;;;0.70;100.00;100707.23;109592;1251;63500;-76
2024/01/07 09:08:55;;;;;;;16.10;11.30;;;;;;;0.64;100.00;100695.48;109616;1251;70901;-75
2024/01/07 09:11:23;;;;;;;19.40;11.80;;;;;;;0.60;100.00;100684.17;109606;1253;59681;-76
2024/01/07 09:13:51;;;;;;;21.30;13.80;;;;;;;0.59;100.00;100690.55;109598;1251;58739;-74
2024/01/07 09:16:19;;;;;;;19.70;13.20;;;;;;;0.61;100.00;100699.64;109575;1251;73952;-76
2024/01/07 09:18:47;;;;;;;19.50;10.80;;;;;;;0.64;100.00;100705.63;109641;1251;63760;-74
2024/01/07 09:21:15;;;;;;;19.30;10.90;;;;;;;0.64;100.00;100700.98;109590;1251;72608;-76
2024/01/07 09:23:44;;;;;;;16.80;11.00;;;;;;;0.61;100.00;100699.64;109561;1251;59712;-74
2024/01/07 09:26:11;;;;;;;18.00;11.60;;;;;;;0.56;100.00;100696.29;109658;1251;60245;-76
2024/01/07 09:28:39;;;;;;;17.60;11.00;;;;;;;0.53;100.00;100691.88;109656;1251;73826;-76
2024/01/07 09:31:07;;;;;;;18.40;11.90;;;;;;;0.51;100.00;100691.91;109579;1251;65686;-75
2024/01/07 09:33:34;;;;;;;19.60;11.60;;;;;;;0.49;100.00;100697.45;109585;1251;71060;-76
2024/01/07 09:36:02;;;;;;;17.60;11.60;;;;;;;0.50;100.00;100689.86;109613;1251;59653;-76
2024/01/07 09:38:47;;;;;;;18.60;11.10;;;;;;;0.53;100.00;100667.80;109661;1251;60150;-74
2024/01/07 09:41:14;;;;;;;16.10;10.40;;;;;;;0.52;100.00;100663.51;109614;1251;74247;-75
2024/01/07 09:43:42;;;;;;;18.80;12.10;;;;;;;0.45;100.00;100662.95;109456;1251;62407;-76
2024/01/07 09:46:09;;;;;;;16.30;11.50;;;;;;;0.36;100.00;100653.13;109595;1251;72821;-76
2024/01/07 09:48:37;;;;;;;17.70;10.90;;;;;;;0.32;100.00;100647.52;109632;1251;58863;-75
2024/01/07 09:51:05;;;;;;;18.10;11.60;;;;;;;0.27;100.00;100646.23;109625;1251;62299;-76
2024/01/07 09:53:33;;;;;;;17.20;11.90;;;;;;;0.24;100.00;100653.50;109437;1251;73888;-76
2024/01/07 09:56:06;;;;;;;20.60;12.70;;;;;;;0.26;100.00;100668.59;109404;1251;62283;-76
2024/01/07 09:58:34;;;;;;;18.30;11.70;;;;;;;0.29;100.00;100673.02;109613;1251;72720;-76
2024/01/07 10:01:01;;;;;;;22.10;14.10;;;;;;;0.31;100.00;100657.85;109554;1253;61096;-77
2024/01/07 10:03:29;;;;;;;15.90;10.70;;;;;;;0.34;100.00;100656.07;109656;1251;60115;-76
2024/01/07 10:05:56;;;;;;;18.50;11.80;;;;;;;0.32;100.00;100654.92;109626;1251;75893;-78
2024/01/07 10:08:24;;;;;;;16.70;11.20;;;;;;;0.30;100.00;100643.09;109629;1251;63758;-77
2024/01/07 10:10:56;;;;;;;20.50;11.80;;;;;;;0.27;100.00;100638.33;109570;1251;73168;-77
2024/01/07 10:13:23;;;;;;;22.00;11.60;;;;;;;0.23;100.00;100634.95;109379;1253;60999;-75
2024/01/07 10:15:52;;;;;;;15.40;12.00;;;;;;;0.24;100.00;100645.60;109529;1251;59250;-78
2024/01/07 10:18:19;;;;;;;16.90;11.90;;;;;;;0.26;100.00;100646.95;109557;1252;73702;-76
2024/01/07 10:20:47;;;;;;;17.60;11.20;;;;;;;0.30;100.00;100634.50;109595;1251;63823;-75
2024/01/07 10:23:22;;;;;;;19.60;12.10;;;;;;;0.30;100.00;100627.95;109615;1251;72600;-76
2024/01/07 10:25:49;;;;;;;18.10;10.60;;;;;;;0.31;100.00;100632.93;109625;1251;61132;-76
2024/01/07 10:28:17;;;;;;;15.20;10.30;;;;;;;0.33;100.00;100629.62;109562;1251;60326;-76
2024/01/07 10:30:51;;;;;;;18.80;10.70;;;;;;;0.33;100.00;100617.41;109648;1251;73838;-75
2024/01/07 10:33:19;;;;;;;18.10;11.30;;;;;;;0.28;100.00;100607.02;109587;1251;62033;-75
2024/01/07 10:35:53;;;;;;;15.90;10.20;;;;;;;0.24;100.00;100591.63;109572;1251;72789;-76
2024/01/07 10:38:21;;;;;;;17.50;10.30;;;;;;;0.21;100.00;100584.10;109589;1251;60911;-75
2024/01/07 10:40:50;;;;;;;17.60;10.30;;;;;;;0.22;100.00;100588.21;109611;1251;58589;-77
2024/01/07 10:43:17;;;;;;;17.20;11.10;;;;;;;0.23;100.00;100586.84;109512;1251;73850;-74
2024/01/07 10:45:48;;;;;;;16.90;11.30;;;;;;;0.24;100.00;100584.05;109667;1251;65850;-75
2024/01/07 10:48:19;;;;;;;15.40;11.00;;;;;;;0.24;100.00;100587.14;109627;1251;70623;-77
2024/01/07 10:50:50;;;;;;;16.10;10.80;;;;;;;0.23;100.00;100591.46;109468;1253;60884;-76
2024/01/07 10:53:19;;;;;;;14.90;9.50;;;;;;;0.22;100.00;100598.36;109714;1251;58943;-75
2024/01/07 10:55:53;;;;;;;14.60;8.70;;;;;;;0.16;100.00;100592.61;109570;1251;76040;-75
2024/01/07 10:58:23;;;;;;;13.10;8.50;;;;;;;0.09;100.00;100586.55;109497;1251;62276;-76
2024/01/07 11:00:52;;;;;;;15.60;9.30;;;;;;;0.09;100.00;100576.75;109495;1251;72492;-75
2024/01/07 11:03:27;;;;;;;13.40;9.20;;;;;;;0.11;100.00;100572.93;109490;1251;59590;-77
2024/01/07 11:06:02;;;;;;;14.80;9.10;;;;;;;0.12;100.00;100570.34;109666;1251;60482;-76
2024/01/07 11:08:41;;;;;;;15.00;8.60;;;;;;;0.13;100.00;100579.60;109480;1251;72956;-75
2024/01/07 11:11:18;;;;;;;10.90;8.10;;;;;;;0.16;100.00;100595.36;109498;1251;62624;-76